Time;durP1;ratioP1;P1;durP2;ratioP2;P2;SDS_P1;SDS_P2;PMS_P1;PMS_P2;Temp;Humidity;BMP_temperature;BMP_pressure;BME280_temperature;BME280_humidity;BME280_pressure;Samples;Min_cycle;Max_cycle;Signal;HPM_P1;HPM_P2
2022/03/10 00:01:20;;;;;;;30.38;15.57;;;4.30;78.50;;;;;;5082950;28;20042;-75
2022/03/10 00:03:46;;;;;;;30.67;15.68;;;4.20;78.50;;;;;;5087061;28;20085;-75
2022/03/10 00:06:11;;;;;;;32.95;17.95;;;4.30;78.90;;;;;;5087216;28;20031;-75
2022/03/10 00:08:37;;;;;;;34.60;17.13;;;4.40;78.50;;;;;;5089507;28;20115;-74
2022/03/10 00:11:03;;;;;;;32.65;16.13;;;4.30;78.60;;;;;;5090159;28;20028;-75
2022/03/10 00:13:30;;;;;;;33.67;15.80;;;4.50;76.70;;;;;;5090203;28;20070;-75
2022/03/10 00:15:56;;;;;;;28.05;15.82;;;4.70;77.10;;;;;;5089386;28;20023;-75
2022/03/10 00:18:22;;;;;;;32.60;16.77;;;4.40;78.00;;;;;;5090138;28;20043;-76
2022/03/10 00:20:48;;;;;;;31.35;16.25;;;4.20;78.40;;;;;;5088993;28;20382;-77
2022/03/10 00:23:13;;;;;;;35.50;17.20;;;4.20;78.30;;;;;;5086206;28;20031;-75
2022/03/10 00:25:39;;;;;;;30.40;14.73;;;4.20;78.20;;;;;;5088969;28;20036;-75
2022/03/10 00:28:04;;;;;;;29.65;16.27;;;4.00;78.30;;;;;;5087038;28;20028;-74
2022/03/10 00:30:30;;;;;;;27.63;13.63;;;4.00;78.50;;;;;;5084462;28;20028;-75
2022/03/10 00:32:56;;;;;;;32.58;15.75;;;3.90;79.60;;;;;;5086219;28;20042;-77
2022/03/10 00:35:23;;;;;;;31.45;16.20;;;3.70;79.70;;;;;;5085909;28;20031;-75
2022/03/10 00:37:49;;;;;;;37.28;17.40;;;3.70;79.80;;;;;;5086358;28;20024;-75
2022/03/10 00:40:15;;;;;;;35.88;15.38;;;3.70;79.70;;;;;;5083932;28;20039;-75
2022/03/10 00:42:41;;;;;;;36.55;16.92;;;3.90;79.30;;;;;;5077756;28;20101;-77
2022/03/10 00:45:08;;;;;;;32.88;16.15;;;4.00;79.20;;;;;;5081395;28;20036;-75
2022/03/10 00:47:34;;;;;;;31.00;16.63;;;4.00;79.00;;;;;;5086248;28;20114;-74
2022/03/10 00:50:00;;;;;;;35.53;16.83;;;4.10;78.10;;;;;;5085569;28;20060;-75
2022/03/10 00:52:27;;;;;;;30.70;14.10;;;4.00;78.30;;;;;;5085783;28;20230;-75
2022/03/10 00:54:53;;;;;;;28.77;14.95;;;3.70;79.50;;;;;;5085036;28;20028;-76
2022/03/10 00:57:19;;;;;;;32.25;15.57;;;3.70;79.50;;;;;;5081785;28;20059;-76
2022/03/10 00:59:45;;;;;;;29.85;15.90;;;3.70;79.60;;;;;;5086343;28;20036;-75
2022/03/10 01:02:10;;;;;;;32.35;17.88;;;4.00;79.00;;;;;;5086428;28;20633;-75
2022/03/10 01:04:36;;;;;;;27.90;14.32;;;4.10;78.50;;;;;;5085444;28;20040;-75
2022/03/10 01:07:02;;;;;;;30.27;15.23;;;3.90;78.60;;;;;;5085016;28;20032;-75
2022/03/10 01:09:28;;;;;;;27.50;15.93;;;3.90;78.80;;;;;;5086007;28;20562;-77
2022/03/10 01:11:53;;;;;;;28.65;15.85;;;3.80;79.20;;;;;;5085689;28;20028;-78
2022/03/10 01:14:19;;;;;;;35.92;15.23;;;3.70;79.90;;;;;;5082639;28;20489;-75
2022/03/10 01:16:44;;;;;;;36.03;15.82;;;3.70;79.60;;;;;;5085840;28;20028;-75
2022/03/10 01:19:10;;;;;;;26.42;14.48;;;3.70;78.70;;;;;;5085363;28;20027;-75
2022/03/10 01:21:36;;;;;;;28.85;15.02;;;3.70;78.90;;;;;;5086515;28;20032;-75
2022/03/10 01:24:02;;;;;;;30.20;15.88;;;3.50;79.50;;;;;;5085659;28;20036;-75
2022/03/10 01:26:27;;;;;;;32.00;17.08;;;3.60;79.50;;;;;;5086520;28;20120;-75
2022/03/10 01:28:53;;;;;;;31.85;17.08;;;3.50;79.90;;;;;;5081859;28;20421;-75
2022/03/10 01:31:19;;;;;;;33.38;15.70;;;3.60;80.00;;;;;;5083697;28;20054;-75
2022/03/10 01:33:44;;;;;;;31.75;16.92;;;3.40;80.70;;;;;;5085539;28;20146;-75
2022/03/10 01:36:10;;;;;;;31.65;14.63;;;3.30;80.90;;;;;;5085783;28;20027;-74
2022/03/10 01:38:39;;;;;;;33.80;14.88;;;3.10;81.40;;;;;;5084922;28;20092;-74
2022/03/10 01:41:06;;;;;;;32.92;16.85;;;3.20;81.10;;;;;;5081414;28;20508;-74
2022/03/10 01:43:32;;;;;;;31.75;16.30;;;3.30;81.40;;;;;;5084959;28;20107;-77
2022/03/10 01:45:59;;;;;;;31.02;16.40;;;3.10;81.30;;;;;;5084790;28;20443;-74
2022/03/10 01:48:24;;;;;;;33.63;16.77;;;3.10;81.80;;;;;;5083421;28;20027;-75
2022/03/10 01:50:51;;;;;;;32.85;15.88;;;3.00;82.90;;;;;;5084700;28;20043;-75
2022/03/10 01:53:17;;;;;;;34.33;16.10;;;3.10;81.80;;;;;;5084642;28;20036;-75
2022/03/10 01:55:43;;;;;;;30.98;16.17;;;3.10;81.80;;;;;;5084801;28;20099;-74
2022/03/10 01:58:09;;;;;;;36.25;17.05;;;3.00;81.90;;;;;;5085844;28;20193;-74
2022/03/10 02:00:35;;;;;;;32.53;14.15;;;3.10;81.30;;;;;;5085078;28;20056;-74
2022/03/10 02:03:01;;;;;;;29.55;16.15;;;3.20;81.00;;;;;;5085551;28;20032;-74
2022/03/10 02:05:30;;;;;;;37.20;16.08;;;3.10;81.30;;;;;;5077283;28;20036;-74
2022/03/10 02:10:42;;;;;;;32.58;14.63;;;3.30;80.90;;;;;;5082376;28;20138;-74
2022/03/10 02:13:07;;;;;;;30.05;15.75;;;3.30;80.80;;;;;;5084272;28;20126;-74
2022/03/10 02:18:21;;;;;;;33.80;17.30;;;3.50;79.50;;;;;;5088269;28;20055;-74
2022/03/10 02:20:47;;;;;;;27.85;15.48;;;3.30;79.60;;;;;;5088328;28;20440;-75
2022/03/10 02:23:13;;;;;;;32.10;16.15;;;3.10;80.90;;;;;;5085822;28;20031;-74
2022/03/10 02:25:39;;;;;;;28.65;15.13;;;3.00;81.60;;;;;;5090101;28;20039;-73
2022/03/10 02:28:05;;;;;;;30.67;15.18;;;2.80;81.60;;;;;;5088314;28;20386;-74
2022/03/10 02:30:32;;;;;;;31.17;15.32;;;2.80;81.80;;;;;;5089593;28;20024;-74
2022/03/10 02:32:59;;;;;;;28.20;14.93;;;3.30;80.60;;;;;;5089749;28;20028;-74
2022/03/10 02:35:25;;;;;;;31.17;15.68;;;3.30;79.80;;;;;;5089986;28;20035;-74
2022/03/10 02:37:51;;;;;;;30.63;16.45;;;3.50;79.60;;;;;;5089601;28;20035;-73
2022/03/10 02:40:16;;;;;;;33.28;16.02;;;3.40;80.00;;;;;;5087401;28;20032;-73
2022/03/10 02:42:42;;;;;;;31.42;15.80;;;3.50;79.90;;;;;;5088599;28;20051;-74
2022/03/10 02:45:09;;;;;;;32.78;15.43;;;3.40;79.50;;;;;;5089465;28;20149;-73
2022/03/10 02:47:35;;;;;;;30.70;15.55;;;3.00;80.70;;;;;;5088884;28;20032;-74
2022/03/10 02:50:04;;;;;;;31.92;15.82;;;2.90;81.50;;;;;;5089945;28;20133;-74
2022/03/10 02:52:30;;;;;;;30.08;16.70;;;2.80;82.10;;;;;;5089140;28;20028;-73
2022/03/10 02:54:56;;;;;;;30.50;16.30;;;2.70;83.40;;;;;;5089509;28;20036;-74
2022/03/10 02:57:21;;;;;;;29.13;14.63;;;2.60;82.20;;;;;;5087777;28;20036;-74
2022/03/10 02:59:47;;;;;;;29.50;14.50;;;2.80;81.60;;;;;;5089528;28;20106;-74
2022/03/10 03:02:13;;;;;;;32.30;15.82;;;2.90;81.50;;;;;;5090829;28;20032;-74
2022/03/10 03:04:39;;;;;;;35.75;16.05;;;2.90;81.20;;;;;;5099498;28;20093;-74
2022/03/10 03:07:04;;;;;;;32.38;13.25;;;3.00;81.10;;;;;;5092496;28;20419;-74
2022/03/10 03:09:30;;;;;;;31.52;15.50;;;2.90;80.80;;;;;;5090024;28;20493;-74
2022/03/10 03:11:56;;;;;;;26.45;14.60;;;2.80;81.50;;;;;;5092051;28;20030;-74
2022/03/10 03:14:24;;;;;;;30.15;14.73;;;2.80;81.50;;;;;;5090725;28;20389;-74
2022/03/10 03:16:51;;;;;;;35.05;15.98;;;2.80;81.90;;;;;;5093235;28;20066;-74
2022/03/10 03:19:17;;;;;;;28.88;14.70;;;2.60;82.00;;;;;;5092488;28;20359;-74
2022/03/10 03:21:42;;;;;;;36.38;14.98;;;2.50;82.20;;;;;;5092286;28;20031;-74
2022/03/10 03:24:08;;;;;;;31.17;15.13;;;2.20;83.30;;;;;;5092360;28;20044;-74
2022/03/10 03:26:34;;;;;;;25.27;13.77;;;2.30;83.20;;;;;;5091967;28;20062;-74
2022/03/10 03:28:59;;;;;;;34.70;15.77;;;2.30;82.70;;;;;;5092921;28;20044;-74
2022/03/10 03:31:25;;;;;;;32.40;15.95;;;2.40;82.60;;;;;;5085084;28;20032;-74
2022/03/10 03:33:51;;;;;;;26.17;13.13;;;2.50;82.10;;;;;;5092502;28;20027;-74
2022/03/10 03:36:17;;;;;;;27.38;13.40;;;2.50;81.90;;;;;;5088366;28;20024;-74
2022/03/10 03:38:42;;;;;;;29.80;14.52;;;2.70;81.30;;;;;;5083063;28;20028;-73
2022/03/10 03:41:08;;;;;;;31.23;13.55;;;2.80;81.20;;;;;;5092712;28;20047;-74
2022/03/10 03:43:33;;;;;;;28.58;13.65;;;2.70;81.50;;;;;;5092812;28;20428;-74
2022/03/10 03:45:59;;;;;;;34.75;14.57;;;2.70;81.30;;;;;;5092694;28;20497;-74
2022/03/10 03:48:25;;;;;;;25.95;13.05;;;2.70;81.30;;;;;;5088095;28;20134;-74
2022/03/10 03:50:52;;;;;;;24.10;12.70;;;2.50;81.50;;;;;;5091905;28;20114;-74
2022/03/10 03:53:18;;;;;;;29.48;14.38;;;2.40;81.90;;;;;;5092462;28;20020;-74
2022/03/10 03:55:43;;;;;;;27.23;13.73;;;2.60;81.50;;;;;;5092120;28;20024;-74
2022/03/10 03:58:09;;;;;;;28.38;14.93;;;2.40;82.20;;;;;;5092874;28;20054;-74
2022/03/10 04:00:36;;;;;;;25.67;13.85;;;2.30;82.10;;;;;;5089536;28;20052;-75
2022/03/10 04:03:11;;;;;;;25.50;12.57;;;2.40;81.90;;;;;;5081813;28;20031;-76
2022/03/10 04:05:38;;;;;;;27.17;13.82;;;2.50;81.50;;;;;;5080760;28;20472;-77
2022/03/10 04:08:04;;;;;;;26.10;13.45;;;2.40;81.90;;;;;;5084822;28;20028;-76
2022/03/10 04:10:31;;;;;;;31.02;14.48;;;2.40;81.90;;;;;;5082754;28;20039;-76
2022/03/10 04:12:57;;;;;;;24.73;11.38;;;2.20;82.40;;;;;;5083516;28;20043;-77
2022/03/10 04:15:23;;;;;;;25.08;12.85;;;2.00;82.70;;;;;;5084150;28;20016;-76
2022/03/10 04:17:48;;;;;;;24.10;11.52;;;1.90;83.00;;;;;;5084730;28;20035;-76
2022/03/10 04:20:14;;;;;;;25.25;13.77;;;2.10;82.60;;;;;;5086787;28;20051;-75
2022/03/10 04:22:40;;;;;;;26.80;15.00;;;2.20;82.50;;;;;;5086265;28;20474;-76
2022/03/10 04:25:08;;;;;;;26.58;13.23;;;2.20;82.30;;;;;;5087577;28;20051;-76
2022/03/10 04:27:34;;;;;;;27.90;13.02;;;2.20;82.50;;;;;;5086597;28;20032;-75
2022/03/10 04:30:00;;;;;;;28.83;13.10;;;2.30;82.20;;;;;;5087011;28;20491;-76
2022/03/10 04:32:25;;;;;;;27.55;14.25;;;2.30;82.30;;;;;;5087109;28;20036;-76
2022/03/10 04:34:51;;;;;;;24.08;11.85;;;2.40;81.80;;;;;;5086232;28;20105;-76
2022/03/10 04:37:17;;;;;;;29.92;13.63;;;2.80;80.90;;;;;;5078486;28;20032;-74
2022/03/10 04:39:42;;;;;;;28.80;13.70;;;3.00;80.70;;;;;;5081411;28;20055;-76
2022/03/10 04:42:08;;;;;;;29.95;13.82;;;3.00;80.30;;;;;;5086188;28;20119;-78
2022/03/10 04:44:34;;;;;;;28.27;14.13;;;3.30;79.50;;;;;;5085298;28;20626;-76
2022/03/10 04:46:59;;;;;;;28.63;12.55;;;3.40;79.20;;;;;;5084095;28;20091;-76
2022/03/10 04:49:25;;;;;;;27.92;13.13;;;3.00;80.50;;;;;;5084162;28;20035;-76
2022/03/10 04:51:50;;;;;;;26.98;13.73;;;2.80;80.70;;;;;;5084495;28;20024;-76
2022/03/10 04:54:16;;;;;;;29.40;13.52;;;2.60;81.10;;;;;;5083279;28;20092;-76
2022/03/10 04:56:42;;;;;;;32.45;16.65;;;2.60;81.40;;;;;;5068750;28;20020;-76
2022/03/10 04:59:07;;;;;;;27.77;12.93;;;2.40;81.80;;;;;;5068963;28;20396;-76
2022/03/10 05:01:33;;;;;;;24.95;12.90;;;2.20;82.40;;;;;;5081072;28;20043;-78
2022/03/10 05:03:59;;;;;;;22.77;11.98;;;2.10;83.10;;;;;;5083655;28;20397;-76
2022/03/10 05:06:24;;;;;;;30.25;12.88;;;1.90;83.40;;;;;;5084298;28;20180;-76
2022/03/10 05:08:50;;;;;;;25.58;11.38;;;1.80;83.50;;;;;;5072279;28;20037;-76
2022/03/10 05:11:16;;;;;;;26.50;12.07;;;1.90;83.20;;;;;;5081848;28;20047;-76
2022/03/10 05:13:41;;;;;;;28.02;12.52;;;2.00;82.50;;;;;;5078030;28;20105;-76
2022/03/10 05:16:07;;;;;;;21.48;11.07;;;2.10;82.10;;;;;;5083574;28;20040;-76
2022/03/10 05:18:32;;;;;;;21.92;11.45;;;2.30;81.40;;;;;;5083247;28;20027;-77
2022/03/10 05:20:58;;;;;;;21.77;11.30;;;2.20;81.50;;;;;;5082267;28;20026;-76
2022/03/10 05:23:24;;;;;;;25.08;11.98;;;2.20;81.30;;;;;;5083224;28;20039;-76
2022/03/10 05:25:50;;;;;;;23.38;11.40;;;1.90;82.00;;;;;;5082319;28;20474;-75
2022/03/10 05:28:15;;;;;;;26.73;12.57;;;1.90;82.30;;;;;;5083602;28;20020;-75
2022/03/10 05:30:42;;;;;;;28.08;12.85;;;2.10;82.40;;;;;;5079510;28;20043;-78
2022/03/10 05:33:12;;;;;;;27.45;12.98;;;2.10;81.60;;;;;;5082582;28;20107;-77
2022/03/10 05:35:38;;;;;;;28.05;12.68;;;2.00;82.30;;;;;;5082821;28;20047;-76
2022/03/10 05:38:05;;;;;;;22.52;12.02;;;2.10;81.90;;;;;;5074002;28;20076;-76
2022/03/10 05:40:30;;;;;;;23.58;11.75;;;2.30;81.70;;;;;;5083471;28;20093;-76
2022/03/10 05:42:57;;;;;;;27.83;11.25;;;2.20;81.90;;;;;;5083169;28;20506;-76
2022/03/10 05:45:24;;;;;;;23.42;11.25;;;2.20;82.20;;;;;;5081562;28;20499;-76
2022/03/10 05:47:52;;;;;;;27.40;12.23;;;2.10;82.50;;;;;;5082676;28;20089;-76
2022/03/10 05:50:18;;;;;;;22.90;10.80;;;2.00;81.90;;;;;;5082787;28;20032;-76
2022/03/10 05:52:45;;;;;;;21.83;11.63;;;2.10;81.80;;;;;;5083122;28;20040;-75
2022/03/10 05:55:15;;;;;;;26.08;12.90;;;2.20;81.50;;;;;;5082407;28;20657;-76
2022/03/10 05:57:41;;;;;;;20.65;11.18;;;2.00;82.20;;;;;;5083127;28;20032;-76
2022/03/10 06:00:10;;;;;;;24.10;11.00;;;2.10;82.10;;;;;;5082598;28;20044;-76
2022/03/10 06:02:36;;;;;;;28.27;12.40;;;2.30;81.60;;;;;;5081605;28;20067;-76
2022/03/10 06:05:02;;;;;;;23.83;12.25;;;2.20;81.60;;;;;;5082963;28;20036;-76
2022/03/10 06:07:28;;;;;;;29.80;12.98;;;2.20;81.80;;;;;;5082122;28;20079;-76
2022/03/10 06:09:55;;;;;;;26.35;12.52;;;2.10;82.20;;;;;;5082282;28;20075;-76
2022/03/10 06:12:27;;;;;;;21.90;11.30;;;2.20;81.60;;;;;;5083257;28;20085;-77
2022/03/10 06:15:05;;;;;;;22.75;12.13;;;2.30;81.40;;;;;;5081938;28;20043;-76
2022/03/10 06:17:31;;;;;;;23.33;13.00;;;2.10;82.30;;;;;;5082451;28;20074;-76
2022/03/10 06:19:57;;;;;;;25.80;12.15;;;2.10;82.60;;;;;;5076154;28;21010;-76
2022/03/10 06:22:26;;;;;;;27.92;13.27;;;1.90;83.20;;;;;;5073391;28;20512;-76
2022/03/10 06:24:52;;;;;;;34.05;13.18;;;1.80;83.40;;;;;;5080652;28;20089;-76
2022/03/10 06:27:19;;;;;;;25.67;12.57;;;1.60;84.30;;;;;;5086413;28;20379;-76
2022/03/10 06:29:45;;;;;;;26.48;12.45;;;1.50;85.20;;;;;;5081607;28;20024;-76
2022/03/10 06:32:15;;;;;;;25.75;12.07;;;1.50;85.50;;;;;;5082397;28;20122;-77
2022/03/10 06:34:40;;;;;;;22.77;12.00;;;1.50;85.50;;;;;;5083350;28;20378;-76
2022/03/10 06:37:07;;;;;;;23.70;10.13;;;1.70;85.30;;;;;;5083196;28;20041;-76
2022/03/10 06:39:33;;;;;;;24.88;10.15;;;1.70;85.00;;;;;;5086923;28;20093;-75
2022/03/10 06:41:59;;;;;;;23.38;11.55;;;1.70;84.70;;;;;;5083837;28;20489;-74
2022/03/10 06:44:25;;;;;;;25.38;11.30;;;1.60;85.20;;;;;;5082570;28;20045;-76
2022/03/10 06:46:51;;;;;;;19.70;8.95;;;1.50;84.70;;;;;;5089766;28;20032;-75
2022/03/10 06:49:17;;;;;;;24.15;11.40;;;1.70;84.00;;;;;;5086280;28;21020;-73
2022/03/10 06:51:43;;;;;;;21.95;11.20;;;1.90;83.50;;;;;;5087022;28;20036;-73
2022/03/10 06:54:10;;;;;;;22.65;12.35;;;2.00;83.70;;;;;;5082706;28;20028;-72
2022/03/10 06:56:35;;;;;;;25.05;10.77;;;2.10;83.10;;;;;;5085982;28;20076;-74
2022/03/10 06:59:01;;;;;;;21.00;10.18;;;2.30;82.80;;;;;;5085124;28;20039;-74
2022/03/10 07:01:27;;;;;;;23.98;10.77;;;2.10;83.30;;;;;;5085869;28;20032;-74
2022/03/10 07:03:57;;;;;;;26.60;12.45;;;1.80;84.10;;;;;;5085213;28;20059;-74
2022/03/10 07:06:23;;;;;;;21.13;10.35;;;1.80;85.60;;;;;;5084616;28;20440;-74
2022/03/10 07:08:49;;;;;;;21.27;10.48;;;1.70;86.10;;;;;;5084969;28;20131;-75
2022/03/10 07:11:14;;;;;;;19.17;10.18;;;1.90;85.20;;;;;;5084570;28;20169;-74
2022/03/10 07:13:40;;;;;;;23.80;11.73;;;1.80;85.40;;;;;;5085574;28;20071;-75
2022/03/10 07:16:05;;;;;;;25.08;12.05;;;1.60;85.80;;;;;;5085453;28;20059;-74
2022/03/10 07:18:31;;;;;;;24.52;11.52;;;1.70;85.90;;;;;;5085286;28;20087;-73
2022/03/10 07:20:57;;;;;;;19.33;9.02;;;1.70;86.70;;;;;;5084788;28;20035;-73
2022/03/10 07:23:22;;;;;;;20.40;9.57;;;1.60;88.10;;;;;;5085220;28;20493;-73
2022/03/10 07:25:48;;;;;;;21.13;9.75;;;2.10;84.80;;;;;;5084655;28;20114;-74
2022/03/10 07:28:14;;;;;;;19.23;9.30;;;2.30;84.00;;;;;;5082696;28;20032;-73
2022/03/10 07:30:39;;;;;;;21.58;9.65;;;2.70;81.90;;;;;;5084852;28;20028;-74
2022/03/10 07:33:05;;;;;;;21.40;9.23;;;2.90;80.60;;;;;;5084692;28;20102;-74
2022/03/10 07:35:31;;;;;;;23.75;9.88;;;2.90;81.80;;;;;;5082317;28;20126;-74
2022/03/10 07:37:59;;;;;;;25.48;12.40;;;3.00;82.40;;;;;;5085449;28;20056;-74
2022/03/10 07:40:25;;;;;;;21.27;11.23;;;2.80;83.30;;;;;;5084812;28;20034;-74
2022/03/10 07:42:51;;;;;;;27.13;11.70;;;2.70;83.50;;;;;;5079685;28;20029;-74
2022/03/10 07:45:17;;;;;;;45.88;12.00;;;2.70;82.70;;;;;;5076389;28;20364;-74
2022/03/10 07:47:43;;;;;;;19.52;9.38;;;2.50;84.30;;;;;;5066492;28;20660;-73
2022/03/10 07:50:09;;;;;;;22.83;10.55;;;2.40;85.30;;;;;;5062627;28;20105;-74
2022/03/10 07:52:36;;;;;;;25.15;12.05;;;2.40;85.00;;;;;;5073068;28;20031;-74
2022/03/10 07:55:03;;;;;;;27.08;12.88;;;2.30;84.80;;;;;;5084688;28;20055;-75
2022/03/10 07:57:29;;;;;;;23.48;11.40;;;2.40;84.60;;;;;;5083982;28;20531;-74
2022/03/10 07:59:54;;;;;;;20.52;10.38;;;2.40;84.10;;;;;;5084280;28;20067;-74
2022/03/10 08:02:21;;;;;;;21.17;9.32;;;2.50;84.50;;;;;;5079249;28;20058;-74
2022/03/10 08:04:47;;;;;;;23.38;10.32;;;2.50;84.20;;;;;;5084120;28;20040;-75
2022/03/10 08:07:12;;;;;;;33.10;11.43;;;2.50;85.00;;;;;;5080797;28;20393;-74
2022/03/10 08:09:38;;;;;;;19.65;11.15;;;2.50;83.40;;;;;;5083725;28;20063;-73
2022/03/10 08:12:04;;;;;;;24.35;11.23;;;2.60;83.00;;;;;;5079982;28;20099;-72
2022/03/10 08:14:30;;;;;;;24.45;11.63;;;2.50;83.10;;;;;;5069924;28;20063;-74
2022/03/10 08:16:56;;;;;;;20.60;10.75;;;2.70;83.50;;;;;;5064915;28;20098;-74
2022/03/10 08:19:21;;;;;;;20.42;10.80;;;2.80;82.40;;;;;;5072475;28;20236;-74
2022/03/10 08:21:48;;;;;;;19.60;9.73;;;2.80;81.90;;;;;;5083896;28;20384;-74
2022/03/10 08:24:14;;;;;;;21.75;10.48;;;3.00;81.40;;;;;;5082596;28;20067;-74
2022/03/10 08:26:39;;;;;;;31.92;11.00;;;3.10;81.40;;;;;;5083728;28;20031;-74
2022/03/10 08:29:05;;;;;;;25.15;9.32;;;3.20;81.60;;;;;;5083311;28;20028;-73
2022/03/10 08:31:31;;;;;;;21.45;10.98;;;3.10;81.30;;;;;;5084250;28;20040;-74
2022/03/10 08:33:57;;;;;;;24.27;9.77;;;3.20;81.10;;;;;;5080626;28;20396;-73
2022/03/10 08:36:23;;;;;;;20.85;9.20;;;3.30;80.50;;;;;;5067457;28;20032;-73
2022/03/10 08:38:49;;;;;;;25.80;12.77;;;3.40;80.50;;;;;;5064412;28;20028;-73
2022/03/10 08:41:14;;;;;;;19.60;10.10;;;3.70;80.80;;;;;;5067954;28;20059;-73
2022/03/10 08:43:40;;;;;;;24.13;11.47;;;3.70;80.00;;;;;;5082995;28;20333;-74
2022/03/10 08:46:06;;;;;;;22.27;11.00;;;3.70;80.20;;;;;;5083538;28;20032;-73
2022/03/10 08:48:32;;;;;;;22.13;11.55;;;3.80;80.20;;;;;;5084071;28;20104;-73
2022/03/10 08:51:00;;;;;;;23.85;10.57;;;3.80;80.00;;;;;;5083991;28;20431;-73
2022/03/10 08:53:26;;;;;;;21.60;10.00;;;3.80;80.10;;;;;;5081198;28;20079;-73
2022/03/10 08:55:52;;;;;;;22.20;11.98;;;3.90;80.30;;;;;;5084118;28;20063;-74
2022/03/10 08:58:18;;;;;;;19.83;10.05;;;4.00;80.30;;;;;;5083412;28;20043;-74
2022/03/10 09:00:44;;;;;;;24.73;11.98;;;4.10;80.00;;;;;;5082776;28;20040;-73
2022/03/10 09:03:10;;;;;;;21.17;10.65;;;4.10;79.70;;;;;;5084124;28;20085;-74
2022/03/10 09:05:37;;;;;;;20.52;11.00;;;4.30;79.80;;;;;;5084480;28;20048;-73
2022/03/10 09:08:03;;;;;;;20.10;10.30;;;4.40;80.10;;;;;;5082280;28;20363;-73
2022/03/10 09:10:29;;;;;;;27.70;10.35;;;4.60;79.60;;;;;;5076041;28;20036;-74
2022/03/10 09:12:56;;;;;;;22.98;11.13;;;4.70;78.80;;;;;;5082954;28;20032;-73
2022/03/10 09:15:22;;;;;;;24.27;10.35;;;4.70;79.20;;;;;;5082501;28;20020;-73
2022/03/10 09:17:48;;;;;;;21.80;10.48;;;4.90;80.00;;;;;;5081780;28;20863;-74
2022/03/10 09:20:14;;;;;;;19.50;10.18;;;4.90;79.40;;;;;;5083530;28;20107;-74
2022/03/10 09:22:40;;;;;;;19.95;9.98;;;5.00;78.40;;;;;;5083144;28;20054;-73
2022/03/10 09:25:08;;;;;;;21.25;10.60;;;5.00;77.60;;;;;;5083261;28;20097;-74
2022/03/10 09:27:38;;;;;;;19.48;9.23;;;5.00;77.40;;;;;;5078092;28;20077;-74
2022/03/10 09:30:07;;;;;;;17.48;9.77;;;5.10;77.30;;;;;;5082632;28;20428;-74
2022/03/10 09:32:39;;;;;;;19.85;9.45;;;5.20;77.10;;;;;;5081404;28;20175;-74
2022/03/10 09:35:07;;;;;;;19.52;9.70;;;5.30;77.30;;;;;;5075433;28;20486;-74
2022/03/10 09:37:33;;;;;;;20.60;9.88;;;5.40;77.50;;;;;;5083115;28;20050;-74
2022/03/10 09:39:59;;;;;;;18.38;8.60;;;5.50;76.60;;;;;;5083717;28;20635;-74
2022/03/10 09:42:28;;;;;;;19.02;8.68;;;5.60;76.40;;;;;;5082390;28;20063;-74
2022/03/10 09:44:58;;;;;;;19.67;8.95;;;5.80;76.70;;;;;;5080638;28;20067;-74
2022/03/10 09:47:25;;;;;;;22.83;9.82;;;5.90;76.80;;;;;;5083267;28;20042;-73
2022/03/10 09:49:52;;;;;;;20.00;10.25;;;6.20;75.60;;;;;;5083337;28;20523;-74
2022/03/10 09:52:18;;;;;;;26.00;9.48;;;6.20;73.90;;;;;;5082339;28;20060;-74
2022/03/10 09:54:45;;;;;;;18.42;8.50;;;6.20;74.10;;;;;;5079483;28;20070;-74
2022/03/10 09:57:13;;;;;;;19.85;9.85;;;6.20;74.50;;;;;;5065982;28;20060;-73
2022/03/10 09:59:52;;;;;;;15.30;8.20;;;6.40;74.00;;;;;;5080483;28;20101;-74
2022/03/10 10:02:18;;;;;;;19.05;9.63;;;6.30;72.20;;;;;;5077948;28;20513;-74
2022/03/10 10:04:44;;;;;;;16.05;8.43;;;6.50;72.50;;;;;;5082447;28;20048;-74
2022/03/10 10:07:11;;;;;;;16.23;8.52;;;6.50;71.80;;;;;;5078865;28;20038;-74
2022/03/10 10:09:57;;;;;;;21.75;9.07;;;6.70;73.40;;;;;;5082964;28;20586;-74
2022/03/10 10:12:30;;;;;;;15.60;8.27;;;7.10;73.80;;;;;;5084149;28;20503;-74
2022/03/10 10:14:58;;;;;;;13.02;7.50;;;7.20;71.90;;;;;;5086904;28;20035;-73
2022/03/10 10:17:33;;;;;;;14.00;7.47;;;7.20;70.90;;;;;;5085245;28;20036;-74
2022/03/10 10:20:00;;;;;;;17.30;8.75;;;7.50;70.80;;;;;;5078599;28;20082;-74
2022/03/10 10:22:27;;;;;;;13.27;7.90;;;7.50;69.80;;;;;;5086790;28;20366;-73
2022/03/10 10:24:59;;;;;;;17.27;7.75;;;7.60;69.20;;;;;;5086309;28;20036;-74
2022/03/10 10:27:27;;;;;;;24.88;8.30;;;7.70;69.60;;;;;;5086549;28;20464;-74
2022/03/10 10:29:55;;;;;;;17.70;8.00;;;7.90;70.60;;;;;;5086846;28;20146;-75
2022/03/10 10:32:55;;;;;;;16.33;7.18;;;7.90;69.40;;;;;;5086848;28;20024;-74
2022/03/10 10:35:21;;;;;;;14.85;7.30;;;7.80;67.80;;;;;;5067465;28;20036;-74
2022/03/10 10:37:51;;;;;;;15.20;8.10;;;8.10;68.20;;;;;;5085612;28;20062;-73
2022/03/10 10:40:28;;;;;;;17.30;6.72;;;8.40;68.00;;;;;;5086799;28;20036;-74
2022/03/10 10:42:55;;;;;;;13.00;6.80;;;8.70;67.40;;;;;;5086347;28;20093;-74
2022/03/10 10:45:38;;;;;;;18.70;6.75;;;8.70;66.90;;;;;;5086299;28;20044;-74
2022/03/10 10:48:11;;;;;;;14.02;6.68;;;8.50;66.30;;;;;;5086076;28;20039;-74
2022/03/10 10:50:47;;;;;;;15.88;7.80;;;8.60;67.00;;;;;;5086221;28;20119;-74
2022/03/10 10:53:33;;;;;;;16.25;7.88;;;8.60;66.50;;;;;;5080988;28;20395;-74
2022/03/10 10:55:58;;;;;;;15.30;7.38;;;8.70;66.60;;;;;;5085235;28;20035;-74
2022/03/10 10:58:25;;;;;;;15.73;7.75;;;8.70;66.20;;;;;;5086246;28;20332;-74
2022/03/10 11:00:51;;;;;;;13.98;6.72;;;8.90;66.30;;;;;;5086019;28;20044;-74
2022/03/10 11:03:36;;;;;;;15.70;6.88;;;8.90;65.50;;;;;;5085795;28;20122;-74
2022/03/10 11:06:01;;;;;;;16.48;6.70;;;8.90;65.50;;;;;;5085892;28;20040;-75
2022/03/10 11:08:30;;;;;;;15.65;6.43;;;9.10;65.50;;;;;;5084782;28;20074;-74
2022/03/10 11:10:56;;;;;;;14.65;6.68;;;9.30;65.70;;;;;;5085084;28;20032;-75
2022/03/10 11:13:22;;;;;;;14.23;6.55;;;9.50;65.60;;;;;;5085953;28;20430;-74
2022/03/10 11:15:50;;;;;;;17.45;7.57;;;9.70;65.70;;;;;;5084809;28;20062;-74
2022/03/10 11:18:15;;;;;;;13.90;5.97;;;9.60;64.90;;;;;;5085160;28;20075;-74
2022/03/10 11:20:47;;;;;;;17.90;6.75;;;9.80;65.20;;;;;;5085715;28;20462;-74
2022/03/10 11:23:22;;;;;;;15.95;7.22;;;9.90;65.10;;;;;;5085445;28;20060;-75
2022/03/10 11:25:50;;;;;;;;;;;10.10;64.90;;;;;;5084090;28;20044;-74
2022/03/10 11:28:22;;;;;;;18.15;6.90;;;10.00;64.40;;;;;;5084557;28;19912;-75
2022/03/10 11:30:51;;;;;;;12.27;6.45;;;10.20;64.90;;;;;;5085258;28;20036;-74
2022/03/10 11:33:17;;;;;;;12.45;7.07;;;10.60;64.40;;;;;;5070896;28;20085;-73
2022/03/10 11:35:50;;;;;;;15.57;6.43;;;10.90;64.30;;;;;;5083007;28;20040;-74
2022/03/10 11:38:18;;;;;;;16.42;6.93;;;10.90;65.00;;;;;;5075883;28;20093;-74
2022/03/10 11:40:49;;;;;;;12.70;6.22;;;11.00;64.60;;;;;;5067840;28;20123;-74
2022/03/10 11:43:36;;;;;;;13.35;6.63;;;10.60;63.50;;;;;;5067950;28;20028;-74
2022/03/10 11:46:17;;;;;;;14.43;6.15;;;10.80;64.80;;;;;;5080955;28;20110;-74
2022/03/10 11:48:43;;;;;;;14.60;7.00;;;10.80;63.80;;;;;;5085213;28;20622;-74
2022/03/10 11:51:16;;;;;;;12.88;6.50;;;11.10;64.00;;;;;;5083515;28;20028;-74
2022/03/10 11:53:56;;;;;;;17.17;6.18;;;11.70;64.00;;;;;;5082052;28;20165;-76
2022/03/10 11:56:44;;;;;;;14.38;7.63;;;11.80;63.00;;;;;;5085319;28;20115;-72
2022/03/10 11:59:31;;;;;;;16.42;7.78;;;11.80;64.00;;;;;;5084206;28;20160;-73
2022/03/10 12:01:58;;;;;;;16.45;7.65;;;12.10;63.90;;;;;;5077646;28;20028;-73
2022/03/10 12:04:43;;;;;;;43.22;9.80;;;12.10;63.60;;;;;;5084831;28;20036;-74
2022/03/10 12:07:16;;;;;;;15.98;7.18;;;12.40;63.00;;;;;;5084288;28;20351;-75
2022/03/10 12:09:42;;;;;;;13.38;6.57;;;12.20;61.90;;;;;;5084196;28;20479;-75
2022/03/10 12:12:25;;;;;;;13.57;7.65;;;12.10;62.40;;;;;;5083740;28;20422;-75
2022/03/10 12:14:56;;;;;;;14.02;6.45;;;12.20;62.90;;;;;;5084033;28;20042;-76
2022/03/10 12:17:43;;;;;;;12.50;6.10;;;12.40;62.50;;;;;;5077893;28;20167;-75
2022/03/10 12:20:15;;;;;;;10.68;5.82;;;12.50;61.20;;;;;;5083816;28;20032;-75
2022/03/10 12:23:03;;;;;;;12.65;6.20;;;12.10;60.60;;;;;;5083871;28;20120;-75
2022/03/10 12:25:38;;;;;;;12.60;5.60;;;12.40;60.70;;;;;;5084009;28;20044;-76
2022/03/10 12:28:03;;;;;;;;;;;12.20;60.20;;;;;;5084657;28;20051;-75
2022/03/10 12:30:30;;;;;;;10.60;5.97;;;12.40;60.30;;;;;;5083593;28;19982;-76
2022/03/10 12:32:57;;;;;;;10.32;4.70;;;12.60;60.10;;;;;;5079820;28;20161;-76
2022/03/10 12:35:28;;;;;;;13.35;5.95;;;12.70;60.20;;;;;;5079738;28;20016;-75
2022/03/10 12:37:54;;;;;;;11.23;5.75;;;12.70;59.30;;;;;;5083773;28;20412;-76
2022/03/10 12:40:26;;;;;;;8.82;4.50;;;12.80;60.20;;;;;;5083829;28;20140;-75
2022/03/10 12:42:59;;;;;;;10.05;5.45;;;13.20;59.00;;;;;;5083253;28;20533;-76
2022/03/10 12:45:24;;;;;;;12.18;6.05;;;13.20;59.80;;;;;;5082917;28;20028;-76
2022/03/10 12:48:07;;;;;;;11.30;5.90;;;13.40;61.10;;;;;;5083075;28;20035;-75